sensor_id;sensor_type;location;lat;lon;timestamp;pressure;altitude;pressure_sealevel;temperature;humidity
54910;BME280;63189;51.240;9.964;2022-11-20T00:01:26;97477.03;;;-6.04;88.56
54910;BME280;63189;51.240;9.964;2022-11-20T00:03:53;97476.00;;;-6.13;89.52
54910;BME280;63189;51.240;9.964;2022-11-20T00:06:19;97484.50;;;-6.11;91.05
54910;BME280;63189;51.240;9.964;2022-11-20T00:08:45;97489.59;;;-6.11;90.73
54910;BME280;63189;51.240;9.964;2022-11-20T00:11:13;97489.56;;;-6.12;91.32
54910;BME280;63189;51.240;9.964;2022-11-20T00:13:39;97490.34;;;-6.15;90.08
54910;BME280;63189;51.240;9.964;2022-11-20T00:16:06;97490.22;;;-6.18;89.96
54910;BME280;63189;51.240;9.964;2022-11-20T00:18:33;97491.84;;;-6.21;89.93
54910;BME280;63189;51.240;9.964;2022-11-20T00:23:28;97493.47;;;-6.23;91.51
54910;BME280;63189;51.240;9.964;2022-11-20T00:25:53;97490.84;;;-6.26;91.96
54910;BME280;63189;51.240;9.964;2022-11-20T00:28:19;97482.38;;;-6.27;90.58
54910;BME280;63189;51.240;9.964;2022-11-20T00:30:44;97477.25;;;-6.28;89.68
54910;BME280;63189;51.240;9.964;2022-11-20T00:33:09;97467.97;;;-6.28;90.81
54910;BME280;63189;51.240;9.964;2022-11-20T00:35:34;97481.53;;;-6.26;89.18
54910;BME280;63189;51.240;9.964;2022-11-20T00:38:00;97486.53;;;-6.29;90.30
54910;BME280;63189;51.240;9.964;2022-11-20T00:40:25;97487.44;;;-6.27;90.31
54910;BME280;63189;51.240;9.964;2022-11-20T00:42:50;97482.38;;;-6.27;90.62
54910;BME280;63189;51.240;9.964;2022-11-20T00:45:16;97491.66;;;-6.27;90.60
54910;BME280;63189;51.240;9.964;2022-11-20T00:47:41;97489.09;;;-6.29;89.49
54910;BME280;63189;51.240;9.964;2022-11-20T00:50:06;97490.53;;;-6.37;89.92
54910;BME280;63189;51.240;9.964;2022-11-20T00:52:32;97485.38;;;-6.40;90.11
54910;BME280;63189;51.240;9.964;2022-11-20T00:54:58;97483.59;;;-6.44;91.11
54910;BME280;63189;51.240;9.964;2022-11-20T00:57:23;97475.69;;;-6.55;91.14
54910;BME280;63189;51.240;9.964;2022-11-20T00:59:48;97481.69;;;-6.51;90.65
54910;BME280;63189;51.240;9.964;2022-11-20T01:02:13;97473.13;;;-6.56;91.28
54910;BME280;63189;51.240;9.964;2022-11-20T01:04:41;97470.47;;;-6.59;91.91
54910;BME280;63189;51.240;9.964;2022-11-20T01:07:06;97479.78;;;-6.58;92.32
54910;BME280;63189;51.240;9.964;2022-11-20T01:09:33;97473.88;;;-6.59;91.74
54910;BME280;63189;51.240;9.964;2022-11-20T01:11:58;97474.72;;;-6.58;91.83
54910;BME280;63189;51.240;9.964;2022-11-20T01:14:24;97468.69;;;-6.63;91.26
54910;BME280;63189;51.240;9.964;2022-11-20T01:16:51;97472.09;;;-6.61;90.98
54910;BME280;63189;51.240;9.964;2022-11-20T01:19:19;97468.72;;;-6.62;90.32
54910;BME280;63189;51.240;9.964;2022-11-20T01:21:45;97469.50;;;-6.64;90.12
54910;BME280;63189;51.240;9.964;2022-11-20T01:24:13;97471.22;;;-6.63;90.51
54910;BME280;63189;51.240;9.964;2022-11-20T01:26:41;97476.09;;;-6.70;90.24
54910;BME280;63189;51.240;9.964;2022-11-20T01:29:08;97470.09;;;-6.73;90.34
54910;BME280;63189;51.240;9.964;2022-11-20T01:31:37;97466.66;;;-6.75;90.84
54910;BME280;63189;51.240;9.964;2022-11-20T01:34:06;97446.25;;;-6.78;91.38
54910;BME280;63189;51.240;9.964;2022-11-20T01:36:33;97459.00;;;-6.77;91.22
54910;BME280;63189;51.240;9.964;2022-11-20T01:39:04;97452.19;;;-6.78;91.07
54910;BME280;63189;51.240;9.964;2022-11-20T01:41:31;97443.63;;;-6.83;90.69
54910;BME280;63189;51.240;9.964;2022-11-20T01:44:18;97438.47;;;-6.86;91.03
54910;BME280;63189;51.240;9.964;2022-11-20T01:49:23;97430.91;;;-6.84;91.92
54910;BME280;63189;51.240;9.964;2022-11-20T01:54:18;97425.06;;;-6.82;92.36
54910;BME280;63189;51.240;9.964;2022-11-20T01:56:45;97421.44;;;-6.90;92.62
54910;BME280;63189;51.240;9.964;2022-11-20T01:59:15;97425.66;;;-6.90;94.02
54910;BME280;63189;51.240;9.964;2022-11-20T02:01:42;97425.53;;;-6.95;94.18
54910;BME280;63189;51.240;9.964;2022-11-20T02:04:08;97430.72;;;-6.90;93.63
54910;BME280;63189;51.240;9.964;2022-11-20T02:06:46;97434.84;;;-6.94;93.96
54910;BME280;63189;51.240;9.964;2022-11-20T02:09:14;97436.63;;;-6.90;93.75
54910;BME280;63189;51.240;9.964;2022-11-20T02:11:40;97428.06;;;-6.95;94.11
54910;BME280;63189;51.240;9.964;2022-11-20T02:14:05;97433.13;;;-6.95;94.50
54910;BME280;63189;51.240;9.964;2022-11-20T02:16:35;97424.63;;;-6.97;94.27
54910;BME280;63189;51.240;9.964;2022-11-20T02:19:04;97428.03;;;-6.96;93.06
54910;BME280;63189;51.240;9.964;2022-11-20T02:21:47;97422.91;;;-6.98;93.60
54910;BME280;63189;51.240;9.964;2022-11-20T02:24:15;97428.69;;;-7.02;93.30
54910;BME280;63189;51.240;9.964;2022-11-20T02:27:12;97428.84;;;-6.97;93.32
54910;BME280;63189;51.240;9.964;2022-11-20T02:29:50;97424.63;;;-6.97;93.63
54910;BME280;63189;51.240;9.964;2022-11-20T02:32:31;97423.69;;;-6.99;93.22
54910;BME280;63189;51.240;9.964;2022-11-20T02:34:57;97420.47;;;-6.95;92.89
54910;BME280;63189;51.240;9.964;2022-11-20T02:37:23;97423.84;;;-6.94;92.65
54910;BME280;63189;51.240;9.964;2022-11-20T02:39:52;97428.84;;;-6.97;92.06
54910;BME280;63189;51.240;9.964;2022-11-20T02:42:18;97429.81;;;-6.92;92.05
54910;BME280;63189;51.240;9.964;2022-11-20T02:44:43;97426.41;;;-6.93;92.32
54910;BME280;63189;51.240;9.964;2022-11-20T02:47:09;97423.06;;;-6.92;92.13
54910;BME280;63189;51.240;9.964;2022-11-20T02:49:34;97423.00;;;-6.95;93.85
54910;BME280;63189;51.240;9.964;2022-11-20T02:52:00;97424.81;;;-6.89;93.79
54910;BME280;63189;51.240;9.964;2022-11-20T02:54:25;97428.22;;;-6.89;93.68
54910;BME280;63189;51.240;9.964;2022-11-20T02:56:51;97430.81;;;-6.87;93.29
54910;BME280;63189;51.240;9.964;2022-11-20T02:59:16;97429.78;;;-6.94;94.12
54910;BME280;63189;51.240;9.964;2022-11-20T03:01:42;97418.00;;;-6.92;94.38
54910;BME280;63189;51.240;9.964;2022-11-20T03:04:07;97413.00;;;-6.89;94.28
54910;BME280;63189;51.240;9.964;2022-11-20T03:06:33;97416.50;;;-6.85;94.25
54910;BME280;63189;51.240;9.964;2022-11-20T03:08:58;97413.28;;;-6.80;94.79
54910;BME280;63189;51.240;9.964;2022-11-20T03:11:23;97407.63;;;-6.71;95.31
54910;BME280;63189;51.240;9.964;2022-11-20T03:13:49;97419.44;;;-6.72;94.54
54910;BME280;63189;51.240;9.964;2022-11-20T03:16:17;97411.91;;;-6.69;94.36
54910;BME280;63189;51.240;9.964;2022-11-20T03:18:44;97414.25;;;-6.76;95.29
54910;BME280;63189;51.240;9.964;2022-11-20T03:21:10;97416.63;;;-6.81;95.50
54910;BME280;63189;51.240;9.964;2022-11-20T03:23:36;97420.03;;;-6.80;95.20
54910;BME280;63189;51.240;9.964;2022-11-20T03:26:17;97420.84;;;-6.81;95.50
54910;BME280;63189;51.240;9.964;2022-11-20T03:28:54;97418.34;;;-6.80;96.20
54910;BME280;63189;51.240;9.964;2022-11-20T03:31:23;97405.59;;;-6.83;96.09
54910;BME280;63189;51.240;9.964;2022-11-20T03:33:49;97414.13;;;-6.79;96.93
54910;BME280;63189;51.240;9.964;2022-11-20T03:36:15;97411.63;;;-6.78;96.71
54910;BME280;63189;51.240;9.964;2022-11-20T03:38:41;97411.72;;;-6.76;96.42
54910;BME280;63189;51.240;9.964;2022-11-20T03:41:10;97415.09;;;-6.76;96.82
54910;BME280;63189;51.240;9.964;2022-11-20T03:43:36;97406.56;;;-6.78;97.10
54910;BME280;63189;51.240;9.964;2022-11-20T03:46:03;97413.47;;;-6.74;97.96
54910;BME280;63189;51.240;9.964;2022-11-20T03:48:28;97397.22;;;-6.80;97.85
54910;BME280;63189;51.240;9.964;2022-11-20T03:51:27;97401.44;;;-6.81;98.29
54910;BME280;63189;51.240;9.964;2022-11-20T03:53:55;97400.53;;;-6.83;97.56
54910;BME280;63189;51.240;9.964;2022-11-20T03:56:26;97402.25;;;-6.82;98.47
54910;BME280;63189;51.240;9.964;2022-11-20T03:58:52;97387.94;;;-6.80;97.60
54910;BME280;63189;51.240;9.964;2022-11-20T04:01:20;97402.22;;;-6.83;97.49
54910;BME280;63189;51.240;9.964;2022-11-20T04:03:46;97395.38;;;-6.86;97.76
54910;BME280;63189;51.240;9.964;2022-11-20T04:06:17;97388.41;;;-6.93;97.66
54910;BME280;63189;51.240;9.964;2022-11-20T04:08:43;97382.44;;;-6.95;96.82
54910;BME280;63189;51.240;9.964;2022-11-20T04:13:34;97378.75;;;-7.06;97.06
54910;BME280;63189;51.240;9.964;2022-11-20T04:15:59;97379.41;;;-7.12;96.88
54910;BME280;63189;51.240;9.964;2022-11-20T04:18:24;97373.50;;;-7.12;97.38
54910;BME280;63189;51.240;9.964;2022-11-20T04:20:50;97373.56;;;-7.09;97.20
54910;BME280;63189;51.240;9.964;2022-11-20T04:23:15;97373.56;;;-7.09;98.00
54910;BME280;63189;51.240;9.964;2022-11-20T04:25:40;97366.94;;;-7.06;97.58
54910;BME280;63189;51.240;9.964;2022-11-20T04:28:05;97358.66;;;-7.00;98.36
54910;BME280;63189;51.240;9.964;2022-11-20T04:30:31;97367.16;;;-6.98;98.46
54910;BME280;63189;51.240;9.964;2022-11-20T04:32:56;97358.78;;;-6.95;97.88
54910;BME280;63189;51.240;9.964;2022-11-20T04:35:21;97350.38;;;-6.94;98.95
54910;BME280;63189;51.240;9.964;2022-11-20T04:37:47;97354.81;;;-6.87;99.23
54910;BME280;63189;51.240;9.964;2022-11-20T04:40:12;97360.81;;;-6.84;99.73
54910;BME280;63189;51.240;9.964;2022-11-20T04:42:37;97360.09;;;-6.78;99.75
54910;BME280;63189;51.240;9.964;2022-11-20T04:45:03;97369.56;;;-6.73;100.00
54910;BME280;63189;51.240;9.964;2022-11-20T04:47:28;97361.97;;;-6.71;99.78
54910;BME280;63189;51.240;9.964;2022-11-20T04:49:53;97371.47;;;-6.64;98.83
54910;BME280;63189;51.240;9.964;2022-11-20T04:52:19;97369.81;;;-6.63;99.28
54910;BME280;63189;51.240;9.964;2022-11-20T04:54:44;97378.31;;;-6.61;98.79
54910;BME280;63189;51.240;9.964;2022-11-20T04:57:09;97380.91;;;-6.58;99.98
54910;BME280;63189;51.240;9.964;2022-11-20T04:59:35;97389.44;;;-6.56;99.66
54910;BME280;63189;51.240;9.964;2022-11-20T05:02:00;97395.41;;;-6.54;100.00
54910;BME280;63189;51.240;9.964;2022-11-20T05:04:25;97397.22;;;-6.49;99.74
54910;BME280;63189;51.240;9.964;2022-11-20T05:06:50;97393.91;;;-6.46;99.46
54910;BME280;63189;51.240;9.964;2022-11-20T05:09:16;97390.53;;;-6.47;99.22
54910;BME280;63189;51.240;9.964;2022-11-20T05:11:41;97382.91;;;-6.47;100.00
54910;BME280;63189;51.240;9.964;2022-11-20T05:14:06;97388.94;;;-6.43;99.73
54910;BME280;63189;51.240;9.964;2022-11-20T05:16:34;97378.00;;;-6.41;100.00
54910;BME280;63189;51.240;9.964;2022-11-20T05:18:59;97372.94;;;-6.41;100.00
54910;BME280;63189;51.240;9.964;2022-11-20T05:21:25;97377.34;;;-6.35;100.00
54910;BME280;63189;51.240;9.964;2022-11-20T05:23:50;97373.22;;;-6.30;99.64
54910;BME280;63189;51.240;9.964;2022-11-20T05:26:17;97363.94;;;-6.29;100.00
54910;BME280;63189;51.240;9.964;2022-11-20T05:28:44;97367.50;;;-6.23;99.93
54910;BME280;63189;51.240;9.964;2022-11-20T05:31:15;97369.28;;;-6.19;100.00
54910;BME280;63189;51.240;9.964;2022-11-20T05:33:42;97356.66;;;-6.16;100.00
54910;BME280;63189;51.240;9.964;2022-11-20T05:36:08;97345.84;;;-6.08;100.00
54910;BME280;63189;51.240;9.964;2022-11-20T05:38:34;97342.50;;;-6.07;100.00
54910;BME280;63189;51.240;9.964;2022-11-20T05:41:11;97346.03;;;-6.01;100.00
54910;BME280;63189;51.240;9.964;2022-11-20T05:43:38;97333.31;;;-6.02;100.00
54910;BME280;63189;51.240;9.964;2022-11-20T05:46:05;97348.63;;;-5.99;100.00
54910;BME280;63189;51.240;9.964;2022-11-20T05:48:32;97346.09;;;-5.99;100.00
54910;BME280;63189;51.240;9.964;2022-11-20T05:51:02;97336.03;;;-5.95;100.00
54910;BME280;63189;51.240;9.964;2022-11-20T05:53:27;97336.97;;;-5.90;100.00
54910;BME280;63189;51.240;9.964;2022-11-20T05:55:58;97338.69;;;-5.89;100.00
54910;BME280;63189;51.240;9.964;2022-11-20T05:58:23;97344.63;;;-5.88;100.00
54910;BME280;63189;51.240;9.964;2022-11-20T06:00:49;97345.50;;;-5.86;99.53
54910;BME280;63189;51.240;9.964;2022-11-20T06:03:14;97338.69;;;-5.89;99.12
54910;BME280;63189;51.240;9.964;2022-11-20T06:05:39;97344.63;;;-5.88;99.49
54910;BME280;63189;51.240;9.964;2022-11-20T06:08:04;97341.28;;;-5.86;99.75
54910;BME280;63189;51.240;9.964;2022-11-20T06:10:30;97340.56;;;-5.82;100.00
54910;BME280;63189;51.240;9.964;2022-11-20T06:12:57;97333.78;;;-5.81;100.00
54910;BME280;63189;51.240;9.964;2022-11-20T06:15:22;97338.09;;;-5.77;99.79
54910;BME280;63189;51.240;9.964;2022-11-20T06:17:52;97333.09;;;-5.74;99.67
54910;BME280;63189;51.240;9.964;2022-11-20T06:20:17;97349.16;;;-5.75;99.90
54910;BME280;63189;51.240;9.964;2022-11-20T06:22:42;97348.31;;;-5.74;99.61
54910;BME280;63189;51.240;9.964;2022-11-20T06:25:08;97339.16;;;-5.69;99.60
54910;BME280;63189;51.240;9.964;2022-11-20T06:27:33;97336.63;;;-5.69;99.78
54910;BME280;63189;51.240;9.964;2022-11-20T06:29:58;97334.09;;;-5.67;99.54
54910;BME280;63189;51.240;9.964;2022-11-20T06:32:23;97329.81;;;-5.70;99.89
54910;BME280;63189;51.240;9.964;2022-11-20T06:34:49;97336.69;;;-5.66;100.00
54910;BME280;63189;51.240;9.964;2022-11-20T06:37:14;97334.25;;;-5.61;99.87
54910;BME280;63189;51.240;9.964;2022-11-20T06:39:39;97336.81;;;-5.60;100.00
54910;BME280;63189;51.240;9.964;2022-11-20T06:42:05;97331.81;;;-5.57;100.00
54910;BME280;63189;51.240;9.964;2022-11-20T06:44:30;97323.34;;;-5.57;99.96
54910;BME280;63189;51.240;9.964;2022-11-20T06:46:55;97325.88;;;-5.57;99.50
54910;BME280;63189;51.240;9.964;2022-11-20T06:49:20;97334.41;;;-5.54;99.63
54910;BME280;63189;51.240;9.964;2022-11-20T06:51:46;97337.88;;;-5.50;99.59
54910;BME280;63189;51.240;9.964;2022-11-20T06:54:11;97347.34;;;-5.43;99.74
54910;BME280;63189;51.240;9.964;2022-11-20T06:56:36;97349.06;;;-5.42;98.58
54910;BME280;63189;51.240;9.964;2022-11-20T06:59:05;97344.88;;;-5.40;98.98
54910;BME280;63189;51.240;9.964;2022-11-20T07:01:31;97351.69;;;-5.39;98.86
54910;BME280;63189;51.240;9.964;2022-11-20T07:03:56;97343.22;;;-5.38;98.89
54910;BME280;63189;51.240;9.964;2022-11-20T07:06:22;97338.16;;;-5.38;99.07
54910;BME280;63189;51.240;9.964;2022-11-20T07:08:47;97334.78;;;-5.37;98.69
54910;BME280;63189;51.240;9.964;2022-11-20T07:11:12;97328.84;;;-5.37;98.99
54910;BME280;63189;51.240;9.964;2022-11-20T07:13:38;97338.25;;;-5.33;98.98
54910;BME280;63189;51.240;9.964;2022-11-20T07:16:06;97339.06;;;-5.34;98.94
54910;BME280;63189;51.240;9.964;2022-11-20T07:18:31;97341.69;;;-5.31;99.29
54910;BME280;63189;51.240;9.964;2022-11-20T07:21:05;97342.59;;;-5.29;100.00
54910;BME280;63189;51.240;9.964;2022-11-20T07:23:31;97341.81;;;-5.25;99.50
54910;BME280;63189;51.240;9.964;2022-11-20T07:25:56;97335.94;;;-5.23;99.70
54910;BME280;63189;51.240;9.964;2022-11-20T07:28:22;97336.75;;;-5.24;99.57
54910;BME280;63189;51.240;9.964;2022-11-20T07:30:51;97330.84;;;-5.23;99.90
54910;BME280;63189;51.240;9.964;2022-11-20T07:33:17;97335.19;;;-5.18;99.25
54910;BME280;63189;51.240;9.964;2022-11-20T07:35:42;97330.97;;;-5.18;99.46
54910;BME280;63189;51.240;9.964;2022-11-20T07:38:08;97332.72;;;-5.14;99.92
54910;BME280;63189;51.240;9.964;2022-11-20T07:40:33;97330.28;;;-5.09;99.96
54910;BME280;63189;51.240;9.964;2022-11-20T07:42:58;97325.22;;;-5.09;100.00
54910;BME280;63189;51.240;9.964;2022-11-20T07:45:24;97332.84;;;-5.08;100.00
54910;BME280;63189;51.240;9.964;2022-11-20T07:47:49;97331.19;;;-5.06;99.80
54910;BME280;63189;51.240;9.964;2022-11-20T07:50:15;97335.50;;;-5.02;99.76
54910;BME280;63189;51.240;9.964;2022-11-20T07:52:40;97340.69;;;-4.99;99.31
54910;BME280;63189;51.240;9.964;2022-11-20T07:55:06;97345.78;;;-4.97;99.24
54910;BME280;63189;51.240;9.964;2022-11-20T07:57:32;97348.38;;;-4.94;98.90
54910;BME280;63189;51.240;9.964;2022-11-20T07:59:57;97350.16;;;-4.90;99.61
54910;BME280;63189;51.240;9.964;2022-11-20T08:02:23;97346.88;;;-4.84;99.04
54910;BME280;63189;51.240;9.964;2022-11-20T08:04:48;97343.66;;;-4.77;98.91
54910;BME280;63189;51.240;9.964;2022-11-20T08:07:13;97338.66;;;-4.71;98.76
54910;BME280;63189;51.240;9.964;2022-11-20T08:09:38;97339.63;;;-4.65;98.80
54910;BME280;63189;51.240;9.964;2022-11-20T08:12:04;97336.28;;;-4.62;98.79
54910;BME280;63189;51.240;9.964;2022-11-20T08:14:48;97328.84;;;-4.53;98.88
54910;BME280;63189;51.240;9.964;2022-11-20T08:17:13;97336.53;;;-4.48;98.66
54910;BME280;63189;51.240;9.964;2022-11-20T08:19:38;97334.91;;;-4.46;99.37
54910;BME280;63189;51.240;9.964;2022-11-20T08:22:04;97340.97;;;-4.38;98.55
54910;BME280;63189;51.240;9.964;2022-11-20T08:24:29;97351.25;;;-4.33;98.60
54910;BME280;63189;51.240;9.964;2022-11-20T08:26:57;97347.91;;;-4.29;99.02
54910;BME280;63189;51.240;9.964;2022-11-20T08:29:23;97350.53;;;-4.26;98.59
54910;BME280;63189;51.240;9.964;2022-11-20T08:31:48;97348.06;;;-4.22;98.99
54910;BME280;63189;51.240;9.964;2022-11-20T08:34:13;97355.63;;;-4.25;98.56
54910;BME280;63189;51.240;9.964;2022-11-20T08:36:38;97353.09;;;-4.25;98.64
54910;BME280;63189;51.240;9.964;2022-11-20T08:39:04;97344.66;;;-4.22;98.57
54910;BME280;63189;51.240;9.964;2022-11-20T08:41:30;97345.50;;;-4.22;99.09
54910;BME280;63189;51.240;9.964;2022-11-20T08:44:02;97351.44;;;-4.21;99.47
54910;BME280;63189;51.240;9.964;2022-11-20T08:46:33;97357.50;;;-4.16;99.52
54910;BME280;63189;51.240;9.964;2022-11-20T08:48:59;97353.28;;;-4.14;99.87
54910;BME280;63189;51.240;9.964;2022-11-20T08:51:24;97362.69;;;-4.09;100.00
54910;BME280;63189;51.240;9.964;2022-11-20T08:53:49;97360.22;;;-4.05;100.00
54910;BME280;63189;51.240;9.964;2022-11-20T08:56:16;97369.63;;;-4.01;100.00
54910;BME280;63189;51.240;9.964;2022-11-20T08:58:41;97361.13;;;-4.02;100.00
54910;BME280;63189;51.240;9.964;2022-11-20T09:01:07;97369.66;;;-3.98;99.95
54910;BME280;63189;51.240;9.964;2022-11-20T09:03:32;97366.38;;;-3.93;99.71
54910;BME280;63189;51.240;9.964;2022-11-20T09:06:03;97363.19;;;-3.80;100.00
54910;BME280;63189;51.240;9.964;2022-11-20T09:08:29;97357.00;;;-3.39;99.59
54910;BME280;63189;51.240;9.964;2022-11-20T09:10:55;97350.47;;;-2.52;97.71
54910;BME280;63189;51.240;9.964;2022-11-20T09:13:22;97339.22;;;-1.80;93.75
54910;BME280;63189;51.240;9.964;2022-11-20T09:15:56;97348.69;;;-1.68;92.39
54910;BME280;63189;51.240;9.964;2022-11-20T09:18:22;97342.72;;;-1.69;91.31
54910;BME280;63189;51.240;9.964;2022-11-20T09:20:47;97356.34;;;-1.71;90.94
54910;BME280;63189;51.240;9.964;2022-11-20T09:23:14;97346.88;;;-1.86;90.76
54910;BME280;63189;51.240;9.964;2022-11-20T09:25:39;97356.25;;;-1.82;90.74
54910;BME280;63189;51.240;9.964;2022-11-20T09:28:04;97359.47;;;-2.05;91.28
54910;BME280;63189;51.240;9.964;2022-11-20T09:30:30;97363.56;;;-2.20;91.06
54910;BME280;63189;51.240;9.964;2022-11-20T09:32:56;97362.53;;;-2.39;91.28
54910;BME280;63189;51.240;9.964;2022-11-20T09:35:21;97361.59;;;-2.46;91.15
54910;BME280;63189;51.240;9.964;2022-11-20T09:37:46;97355.53;;;-2.57;91.49
54910;BME280;63189;51.240;9.964;2022-11-20T09:40:20;97359.69;;;-2.62;92.00
54910;BME280;63189;51.240;9.964;2022-11-20T09:42:54;97354.56;;;-2.65;92.77
54910;BME280;63189;51.240;9.964;2022-11-20T09:50:45;97346.81;;;-2.73;93.19
54910;BME280;63189;51.240;9.964;2022-11-20T09:55:38;97345.19;;;-2.68;93.84
54910;BME280;63189;51.240;9.964;2022-11-20T09:58:20;97340.09;;;-2.68;93.76
54910;BME280;63189;51.240;9.964;2022-11-20T10:00:48;97339.28;;;-2.62;93.71
54910;BME280;63189;51.240;9.964;2022-11-20T10:03:19;97343.66;;;-2.53;93.96
54910;BME280;63189;51.240;9.964;2022-11-20T10:05:49;97350.53;;;-2.46;94.09
54910;BME280;63189;51.240;9.964;2022-11-20T10:08:24;97343.03;;;-2.29;94.47
54910;BME280;63189;51.240;9.964;2022-11-20T10:10:59;97339.84;;;-2.09;94.24
54910;BME280;63189;51.240;9.964;2022-11-20T10:13:56;97341.63;;;-1.98;93.38
54910;BME280;63189;51.240;9.964;2022-11-20T10:19:15;97328.22;;;-1.75;92.42
54910;BME280;63189;51.240;9.964;2022-11-20T10:22:00;97325.75;;;-1.64;91.56
54910;BME280;63189;51.240;9.964;2022-11-20T10:27:16;97325.84;;;-1.47;90.57
54910;BME280;63189;51.240;9.964;2022-11-20T10:29:59;97330.09;;;-1.46;90.84
54910;BME280;63189;51.240;9.964;2022-11-20T10:32:32;97329.25;;;-1.50;91.20
54910;BME280;63189;51.240;9.964;2022-11-20T10:35:26;97339.44;;;-1.53;91.38
54910;BME280;63189;51.240;9.964;2022-11-20T10:37:59;97325.75;;;-1.64;90.87
54910;BME280;63189;51.240;9.964;2022-11-20T10:40:44;97330.00;;;-1.63;90.93
54910;BME280;63189;51.240;9.964;2022-11-20T10:43:14;97330.78;;;-1.70;91.08
54910;BME280;63189;51.240;9.964;2022-11-20T10:45:58;97329.00;;;-1.80;91.05
54910;BME280;63189;51.240;9.964;2022-11-20T10:48:26;97326.44;;;-1.85;91.01
54910;BME280;63189;51.240;9.964;2022-11-20T10:56:19;97318.69;;;-1.94;91.29
54910;BME280;63189;51.240;9.964;2022-11-20T11:01:17;97312.66;;;-2.04;91.92
54910;BME280;63189;51.240;9.964;2022-11-20T11:03:44;97302.44;;;-2.04;92.17
54910;BME280;63189;51.240;9.964;2022-11-20T11:06:29;97298.19;;;-2.01;91.98
54910;BME280;63189;51.240;9.964;2022-11-20T11:09:01;97294.09;;;-1.81;92.55
54910;BME280;63189;51.240;9.964;2022-11-20T11:11:30;97284.91;;;-1.53;93.04
54910;BME280;63189;51.240;9.964;2022-11-20T11:14:07;97285.09;;;-1.24;93.09
54910;BME280;63189;51.240;9.964;2022-11-20T11:16:33;97289.41;;;-1.06;92.65
54910;BME280;63189;51.240;9.964;2022-11-20T11:19:14;97292.06;;;-0.90;91.18
54910;BME280;63189;51.240;9.964;2022-11-20T11:21:46;97287.81;;;-0.77;91.76
54910;BME280;63189;51.240;9.964;2022-11-20T11:24:30;97277.63;;;-0.63;92.87
54910;BME280;63189;51.240;9.964;2022-11-20T11:26:59;97266.56;;;-0.50;91.80
54910;BME280;63189;51.240;9.964;2022-11-20T11:29:29;97279.41;;;-0.35;91.71
54910;BME280;63189;51.240;9.964;2022-11-20T11:32:12;97274.28;;;-0.24;90.06
54910;BME280;63189;51.240;9.964;2022-11-20T11:34:38;97266.63;;;-0.10;90.23
54910;BME280;63189;51.240;9.964;2022-11-20T11:37:09;97266.59;;;-0.01;89.03
54910;BME280;63189;51.240;9.964;2022-11-20T11:39:38;97265.75;;;0.09;88.37
54910;BME280;63189;51.240;9.964;2022-11-20T11:42:12;97268.34;;;0.21;88.41
54910;BME280;63189;51.240;9.964;2022-11-20T11:44:44;97264.91;;;0.33;88.20
54910;BME280;63189;51.240;9.964;2022-11-20T11:47:35;97269.13;;;0.46;86.91
54910;BME280;63189;51.240;9.964;2022-11-20T11:52:51;97260.59;;;0.53;86.10
54910;BME280;63189;51.240;9.964;2022-11-20T11:55:36;97251.16;;;0.57;85.82
54910;BME280;63189;51.240;9.964;2022-11-20T11:58:11;97243.47;;;0.65;86.47
54910;BME280;63189;51.240;9.964;2022-11-20T12:00:39;97245.97;;;0.71;87.71
54910;BME280;63189;51.240;9.964;2022-11-20T12:03:38;97248.56;;;0.75;87.79
54910;BME280;63189;51.240;9.964;2022-11-20T12:06:12;97257.09;;;0.83;88.79
54910;BME280;63189;51.240;9.964;2022-11-20T12:08:50;97251.94;;;0.82;87.75
54910;BME280;63189;51.240;9.964;2022-11-20T12:11:45;97253.63;;;0.89;87.13
54910;BME280;63189;51.240;9.964;2022-11-20T12:14:28;97255.31;;;0.98;88.48
54910;BME280;63189;51.240;9.964;2022-11-20T12:16:56;97254.44;;;0.99;86.95
54910;BME280;63189;51.240;9.964;2022-11-20T12:19:23;97241.63;;;0.99;85.99
54910;BME280;63189;51.240;9.964;2022-11-20T12:30:22;97248.47;;;0.95;85.32
54910;BME280;63189;51.240;9.964;2022-11-20T12:36:40;97244.16;;;1.02;84.59
54910;BME280;63189;51.240;9.964;2022-11-20T12:48:18;97232.19;;;0.99;84.95
54910;BME280;63189;51.240;9.964;2022-11-20T12:50:43;97233.06;;;0.98;84.34
54910;BME280;63189;51.240;9.964;2022-11-20T13:01:24;97233.06;;;0.92;83.27
54910;BME280;63189;51.240;9.964;2022-11-20T13:06:40;97226.25;;;0.88;85.23
54910;BME280;63189;51.240;9.964;2022-11-20T13:09:11;97224.56;;;0.85;83.76
54910;BME280;63189;51.240;9.964;2022-11-20T13:11:43;97223.72;;;0.85;84.81
54910;BME280;63189;51.240;9.964;2022-11-20T13:16:50;97219.44;;;0.85;84.36
54910;BME280;63189;51.240;9.964;2022-11-20T13:19:18;97218.56;;;0.82;84.42
54910;BME280;63189;51.240;9.964;2022-11-20T13:21:47;97218.59;;;0.80;84.32
54910;BME280;63189;51.240;9.964;2022-11-20T13:24:23;97226.31;;;0.76;84.50
54910;BME280;63189;51.240;9.964;2022-11-20T13:27:04;97217.81;;;0.65;84.37
54910;BME280;63189;51.240;9.964;2022-11-20T13:29:32;97222.94;;;0.57;84.86
54910;BME280;63189;51.240;9.964;2022-11-20T13:32:15;97223.81;;;0.50;85.05
54910;BME280;63189;51.240;9.964;2022-11-20T13:34:55;97225.56;;;0.42;85.29
54910;BME280;63189;51.240;9.964;2022-11-20T13:37:34;97222.16;;;0.35;84.77
54910;BME280;63189;51.240;9.964;2022-11-20T13:45:25;97209.38;;;0.06;85.36
54910;BME280;63189;51.240;9.964;2022-11-20T13:47:53;97197.41;;;-0.03;85.90
54910;BME280;63189;51.240;9.964;2022-11-20T13:50:19;97207.69;;;-0.09;86.01
54910;BME280;63189;51.240;9.964;2022-11-20T13:52:56;97207.69;;;-0.16;86.67
54910;BME280;63189;51.240;9.964;2022-11-20T13:55:37;97206.00;;;-0.20;87.42
54910;BME280;63189;51.240;9.964;2022-11-20T13:58:15;97206.84;;;-0.18;87.50
54910;BME280;63189;51.240;9.964;2022-11-20T14:00:51;97213.66;;;-0.17;87.47
54910;BME280;63189;51.240;9.964;2022-11-20T14:03:24;97217.06;;;-0.21;87.60
54910;BME280;63189;51.240;9.964;2022-11-20T14:05:59;97204.28;;;-0.24;87.80
54910;BME280;63189;51.240;9.964;2022-11-20T14:08:43;97201.72;;;-0.31;87.20
54910;BME280;63189;51.240;9.964;2022-11-20T14:13:56;97198.28;;;-0.36;87.32
54910;BME280;63189;51.240;9.964;2022-11-20T14:16:23;97204.28;;;-0.41;87.30
54910;BME280;63189;51.240;9.964;2022-11-20T14:18:49;97200.00;;;-0.47;87.40
54910;BME280;63189;51.240;9.964;2022-11-20T14:21:25;97200.84;;;-0.49;87.64
54910;BME280;63189;51.240;9.964;2022-11-20T14:24:03;97198.28;;;-0.54;87.40
54910;BME280;63189;51.240;9.964;2022-11-20T14:26:28;97182.06;;;-0.59;87.61